sensor_id;sensor_type;location;lat;lon;timestamp;P1;durP1;ratioP1;P2;durP2;ratioP2
58661;SDS011;44432;49.786;22.760;2022-12-29T00:01:56;6.50;;;2.50;;
58661;SDS011;44432;49.786;22.760;2022-12-29T00:04:26;13.80;;;7.30;;
58661;SDS011;44432;49.786;22.760;2022-12-29T00:06:57;5.40;;;2.90;;
58661;SDS011;44432;49.786;22.760;2022-12-29T00:09:28;6.20;;;3.50;;
58661;SDS011;44432;49.786;22.760;2022-12-29T00:12:00;7.00;;;3.40;;
58661;SDS011;44432;49.786;22.760;2022-12-29T00:14:32;3.40;;;1.70;;
58661;SDS011;44432;49.786;22.760;2022-12-29T00:17:20;4.60;;;2.20;;
58661;SDS011;44432;49.786;22.760;2022-12-29T00:19:51;3.10;;;2.10;;
58661;SDS011;44432;49.786;22.760;2022-12-29T00:22:40;5.60;;;3.30;;
58661;SDS011;44432;49.786;22.760;2022-12-29T00:25:28;8.30;;;2.50;;
58661;SDS011;44432;49.786;22.760;2022-12-29T00:28:17;10.10;;;4.60;;
58661;SDS011;44432;49.786;22.760;2022-12-29T00:31:06;7.10;;;3.60;;
58661;SDS011;44432;49.786;22.760;2022-12-29T00:33:58;4.00;;;1.50;;
58661;SDS011;44432;49.786;22.760;2022-12-29T00:36:46;8.00;;;4.70;;
58661;SDS011;44432;49.786;22.760;2022-12-29T00:39:17;6.80;;;3.00;;
58661;SDS011;44432;49.786;22.760;2022-12-29T00:42:06;4.70;;;2.10;;
58661;SDS011;44432;49.786;22.760;2022-12-29T00:44:55;5.60;;;1.80;;
58661;SDS011;44432;49.786;22.760;2022-12-29T00:47:26;15.90;;;9.90;;
58661;SDS011;44432;49.786;22.760;2022-12-29T00:49:56;11.60;;;6.50;;
58661;SDS011;44432;49.786;22.760;2022-12-29T00:52:27;5.60;;;2.10;;
58661;SDS011;44432;49.786;22.760;2022-12-29T00:54:58;3.10;;;1.40;;
58661;SDS011;44432;49.786;22.760;2022-12-29T00:57:29;13.50;;;5.20;;
58661;SDS011;44432;49.786;22.760;2022-12-29T01:00:00;3.60;;;1.30;;
58661;SDS011;44432;49.786;22.760;2022-12-29T01:02:31;3.60;;;1.30;;
58661;SDS011;44432;49.786;22.760;2022-12-29T01:05:02;3.30;;;1.50;;
58661;SDS011;44432;49.786;22.760;2022-12-29T01:07:33;5.70;;;2.00;;
58661;SDS011;44432;49.786;22.760;2022-12-29T01:10:04;3.00;;;1.20;;
58661;SDS011;44432;49.786;22.760;2022-12-29T01:12:38;4.20;;;1.70;;
58661;SDS011;44432;49.786;22.760;2022-12-29T01:15:10;3.30;;;1.20;;
58661;SDS011;44432;49.786;22.760;2022-12-29T01:17:43;3.70;;;1.40;;
58661;SDS011;44432;49.786;22.760;2022-12-29T01:20:13;2.60;;;1.30;;
58661;SDS011;44432;49.786;22.760;2022-12-29T01:22:44;3.30;;;1.30;;
58661;SDS011;44432;49.786;22.760;2022-12-29T01:25:16;2.80;;;1.30;;
58661;SDS011;44432;49.786;22.760;2022-12-29T01:27:46;3.60;;;1.40;;
58661;SDS011;44432;49.786;22.760;2022-12-29T01:30:17;3.30;;;1.30;;
58661;SDS011;44432;49.786;22.760;2022-12-29T01:32:48;1.90;;;1.10;;
58661;SDS011;44432;49.786;22.760;2022-12-29T01:35:19;3.20;;;1.20;;
58661;SDS011;44432;49.786;22.760;2022-12-29T01:37:50;3.60;;;1.20;;
58661;SDS011;44432;49.786;22.760;2022-12-29T01:40:20;2.70;;;1.00;;
58661;SDS011;44432;49.786;22.760;2022-12-29T01:42:51;4.00;;;1.40;;
58661;SDS011;44432;49.786;22.760;2022-12-29T01:45:22;2.50;;;1.10;;
58661;SDS011;44432;49.786;22.760;2022-12-29T01:47:53;2.60;;;1.20;;
58661;SDS011;44432;49.786;22.760;2022-12-29T01:50:29;2.00;;;1.00;;
58661;SDS011;44432;49.786;22.760;2022-12-29T01:53:03;3.20;;;1.20;;
58661;SDS011;44432;49.786;22.760;2022-12-29T01:55:38;5.70;;;1.20;;
58661;SDS011;44432;49.786;22.760;2022-12-29T01:58:14;2.40;;;1.10;;
58661;SDS011;44432;49.786;22.760;2022-12-29T02:00:49;7.30;;;1.30;;
58661;SDS011;44432;49.786;22.760;2022-12-29T02:03:19;2.50;;;0.90;;
58661;SDS011;44432;49.786;22.760;2022-12-29T02:05:55;3.50;;;0.90;;
58661;SDS011;44432;49.786;22.760;2022-12-29T02:08:31;4.00;;;1.30;;
58661;SDS011;44432;49.786;22.760;2022-12-29T02:11:02;3.60;;;0.90;;
58661;SDS011;44432;49.786;22.760;2022-12-29T02:13:34;1.50;;;0.70;;
58661;SDS011;44432;49.786;22.760;2022-12-29T02:16:07;1.40;;;0.80;;
58661;SDS011;44432;49.786;22.760;2022-12-29T02:18:50;2.10;;;0.90;;
58661;SDS011;44432;49.786;22.760;2022-12-29T02:21:41;0.70;;;0.50;;
58661;SDS011;44432;49.786;22.760;2022-12-29T02:27:47;2.70;;;0.80;;
58661;SDS011;44432;49.786;22.760;2022-12-29T02:33:32;2.70;;;1.00;;
58661;SDS011;44432;49.786;22.760;2022-12-29T02:36:12;2.80;;;1.50;;
58661;SDS011;44432;49.786;22.760;2022-12-29T02:38:54;5.30;;;1.70;;
58661;SDS011;44432;49.786;22.760;2022-12-29T02:41:37;5.80;;;1.30;;
58661;SDS011;44432;49.786;22.760;2022-12-29T02:44:16;2.70;;;0.90;;
58661;SDS011;44432;49.786;22.760;2022-12-29T02:46:54;1.40;;;0.70;;
58661;SDS011;44432;49.786;22.760;2022-12-29T02:49:34;2.50;;;0.80;;
58661;SDS011;44432;49.786;22.760;2022-12-29T02:52:10;1.00;;;0.60;;
58661;SDS011;44432;49.786;22.760;2022-12-29T02:54:45;2.50;;;0.90;;
58661;SDS011;44432;49.786;22.760;2022-12-29T02:57:29;2.50;;;0.90;;
58661;SDS011;44432;49.786;22.760;2022-12-29T03:00:03;2.90;;;0.90;;
58661;SDS011;44432;49.786;22.760;2022-12-29T03:02:46;1.80;;;0.70;;
58661;SDS011;44432;49.786;22.760;2022-12-29T03:06:05;1.40;;;0.80;;
58661;SDS011;44432;49.786;22.760;2022-12-29T03:08:55;2.50;;;0.90;;
58661;SDS011;44432;49.786;22.760;2022-12-29T03:11:34;1.80;;;0.70;;
58661;SDS011;44432;49.786;22.760;2022-12-29T03:14:31;1.50;;;0.80;;
58661;SDS011;44432;49.786;22.760;2022-12-29T03:17:25;2.70;;;1.40;;
58661;SDS011;44432;49.786;22.760;2022-12-29T03:20:04;1.70;;;0.80;;
58661;SDS011;44432;49.786;22.760;2022-12-29T03:22:41;2.50;;;1.10;;
58661;SDS011;44432;49.786;22.760;2022-12-29T03:25:17;2.00;;;0.90;;
58661;SDS011;44432;49.786;22.760;2022-12-29T03:27:53;2.30;;;0.80;;
58661;SDS011;44432;49.786;22.760;2022-12-29T03:30:26;2.20;;;0.70;;
58661;SDS011;44432;49.786;22.760;2022-12-29T03:33:00;3.80;;;1.20;;
58661;SDS011;44432;49.786;22.760;2022-12-29T03:35:37;1.80;;;0.60;;
58661;SDS011;44432;49.786;22.760;2022-12-29T03:38:11;2.30;;;0.70;;
58661;SDS011;44432;49.786;22.760;2022-12-29T03:40:47;4.40;;;0.90;;
58661;SDS011;44432;49.786;22.760;2022-12-29T03:43:20;1.70;;;0.60;;
58661;SDS011;44432;49.786;22.760;2022-12-29T03:45:51;1.80;;;0.60;;
58661;SDS011;44432;49.786;22.760;2022-12-29T03:48:21;1.20;;;0.60;;
58661;SDS011;44432;49.786;22.760;2022-12-29T03:50:52;1.90;;;0.80;;
58661;SDS011;44432;49.786;22.760;2022-12-29T03:53:23;6.90;;;1.50;;
58661;SDS011;44432;49.786;22.760;2022-12-29T03:55:54;2.60;;;1.00;;
58661;SDS011;44432;49.786;22.760;2022-12-29T03:58:24;5.80;;;1.80;;
58661;SDS011;44432;49.786;22.760;2022-12-29T04:00:56;4.40;;;1.40;;
58661;SDS011;44432;49.786;22.760;2022-12-29T04:03:26;4.50;;;1.10;;
58661;SDS011;44432;49.786;22.760;2022-12-29T04:05:57;2.30;;;1.10;;
58661;SDS011;44432;49.786;22.760;2022-12-29T04:08:28;1.60;;;0.80;;
58661;SDS011;44432;49.786;22.760;2022-12-29T04:10:59;3.10;;;0.80;;
58661;SDS011;44432;49.786;22.760;2022-12-29T04:13:30;1.20;;;0.70;;
58661;SDS011;44432;49.786;22.760;2022-12-29T04:16:01;3.80;;;1.10;;
58661;SDS011;44432;49.786;22.760;2022-12-29T04:18:32;2.90;;;0.90;;
58661;SDS011;44432;49.786;22.760;2022-12-29T04:21:03;4.80;;;1.90;;
58661;SDS011;44432;49.786;22.760;2022-12-29T04:23:35;18.80;;;2.40;;
58661;SDS011;44432;49.786;22.760;2022-12-29T04:26:06;6.00;;;1.20;;
58661;SDS011;44432;49.786;22.760;2022-12-29T04:28:37;5.00;;;1.40;;
58661;SDS011;44432;49.786;22.760;2022-12-29T04:31:08;6.50;;;2.10;;
58661;SDS011;44432;49.786;22.760;2022-12-29T04:33:39;4.70;;;1.20;;
58661;SDS011;44432;49.786;22.760;2022-12-29T04:36:10;1.80;;;1.00;;
58661;SDS011;44432;49.786;22.760;2022-12-29T04:38:41;1.90;;;0.60;;
58661;SDS011;44432;49.786;22.760;2022-12-29T04:41:11;3.40;;;1.00;;
58661;SDS011;44432;49.786;22.760;2022-12-29T04:43:42;3.40;;;1.00;;
58661;SDS011;44432;49.786;22.760;2022-12-29T04:46:13;4.00;;;1.30;;
58661;SDS011;44432;49.786;22.760;2022-12-29T04:48:44;5.10;;;1.80;;
58661;SDS011;44432;49.786;22.760;2022-12-29T04:51:15;3.70;;;1.90;;
58661;SDS011;44432;49.786;22.760;2022-12-29T04:53:46;3.20;;;1.40;;
58661;SDS011;44432;49.786;22.760;2022-12-29T04:56:17;5.50;;;1.50;;
58661;SDS011;44432;49.786;22.760;2022-12-29T04:58:48;3.40;;;1.30;;
58661;SDS011;44432;49.786;22.760;2022-12-29T05:01:18;3.50;;;1.40;;
58661;SDS011;44432;49.786;22.760;2022-12-29T05:03:50;5.40;;;2.20;;
58661;SDS011;44432;49.786;22.760;2022-12-29T05:06:21;6.50;;;2.30;;
58661;SDS011;44432;49.786;22.760;2022-12-29T05:08:52;11.10;;;5.00;;
58661;SDS011;44432;49.786;22.760;2022-12-29T05:11:23;13.10;;;5.90;;
58661;SDS011;44432;49.786;22.760;2022-12-29T05:13:53;6.70;;;2.50;;
58661;SDS011;44432;49.786;22.760;2022-12-29T05:16:24;3.30;;;1.30;;
58661;SDS011;44432;49.786;22.760;2022-12-29T05:18:55;4.40;;;1.80;;
58661;SDS011;44432;49.786;22.760;2022-12-29T05:21:26;4.90;;;1.20;;
58661;SDS011;44432;49.786;22.760;2022-12-29T05:23:57;3.60;;;1.10;;
58661;SDS011;44432;49.786;22.760;2022-12-29T05:26:28;6.50;;;2.40;;
58661;SDS011;44432;49.786;22.760;2022-12-29T05:28:59;5.10;;;1.30;;
58661;SDS011;44432;49.786;22.760;2022-12-29T05:31:30;4.80;;;2.30;;
58661;SDS011;44432;49.786;22.760;2022-12-29T05:34:03;8.60;;;4.10;;
58661;SDS011;44432;49.786;22.760;2022-12-29T05:36:34;3.50;;;1.50;;
58661;SDS011;44432;49.786;22.760;2022-12-29T05:39:04;10.10;;;2.20;;
58661;SDS011;44432;49.786;22.760;2022-12-29T05:41:36;3.40;;;2.00;;
58661;SDS011;44432;49.786;22.760;2022-12-29T05:44:07;5.30;;;2.00;;
58661;SDS011;44432;49.786;22.760;2022-12-29T05:46:38;4.90;;;1.20;;
58661;SDS011;44432;49.786;22.760;2022-12-29T05:49:09;5.30;;;1.50;;
58661;SDS011;44432;49.786;22.760;2022-12-29T05:55:04;12.10;;;1.90;;
58661;SDS011;44432;49.786;22.760;2022-12-29T05:57:36;9.40;;;2.80;;
58661;SDS011;44432;49.786;22.760;2022-12-29T06:00:08;6.40;;;1.40;;
58661;SDS011;44432;49.786;22.760;2022-12-29T06:05:10;3.50;;;1.50;;
58661;SDS011;44432;49.786;22.760;2022-12-29T06:07:41;9.50;;;3.90;;
58661;SDS011;44432;49.786;22.760;2022-12-29T06:10:12;2.90;;;1.30;;
58661;SDS011;44432;49.786;22.760;2022-12-29T06:12:43;3.20;;;1.20;;
58661;SDS011;44432;49.786;22.760;2022-12-29T06:15:15;8.40;;;2.00;;
58661;SDS011;44432;49.786;22.760;2022-12-29T06:17:46;4.50;;;1.90;;
58661;SDS011;44432;49.786;22.760;2022-12-29T06:20:17;4.50;;;1.70;;
58661;SDS011;44432;49.786;22.760;2022-12-29T06:22:48;9.00;;;3.00;;
58661;SDS011;44432;49.786;22.760;2022-12-29T06:25:19;3.60;;;1.70;;
58661;SDS011;44432;49.786;22.760;2022-12-29T06:27:51;6.10;;;3.20;;
58661;SDS011;44432;49.786;22.760;2022-12-29T06:30:22;7.40;;;1.80;;
58661;SDS011;44432;49.786;22.760;2022-12-29T06:32:53;7.20;;;2.30;;
58661;SDS011;44432;49.786;22.760;2022-12-29T06:35:24;8.50;;;2.70;;
58661;SDS011;44432;49.786;22.760;2022-12-29T06:37:56;9.50;;;2.00;;
58661;SDS011;44432;49.786;22.760;2022-12-29T06:40:27;12.00;;;2.50;;
58661;SDS011;44432;49.786;22.760;2022-12-29T06:42:58;6.70;;;2.60;;
58661;SDS011;44432;49.786;22.760;2022-12-29T06:45:29;12.70;;;4.40;;
58661;SDS011;44432;49.786;22.760;2022-12-29T06:48:00;13.30;;;4.70;;
58661;SDS011;44432;49.786;22.760;2022-12-29T06:50:31;8.90;;;2.30;;
58661;SDS011;44432;49.786;22.760;2022-12-29T06:53:02;18.80;;;8.20;;
58661;SDS011;44432;49.786;22.760;2022-12-29T06:55:33;7.90;;;2.10;;
58661;SDS011;44432;49.786;22.760;2022-12-29T06:58:05;5.80;;;1.90;;
58661;SDS011;44432;49.786;22.760;2022-12-29T07:00:39;8.50;;;2.40;;
58661;SDS011;44432;49.786;22.760;2022-12-29T07:03:14;6.80;;;3.00;;
58661;SDS011;44432;49.786;22.760;2022-12-29T07:05:45;5.20;;;2.00;;
58661;SDS011;44432;49.786;22.760;2022-12-29T07:08:16;10.30;;;4.70;;
58661;SDS011;44432;49.786;22.760;2022-12-29T07:10:47;7.50;;;2.00;;
58661;SDS011;44432;49.786;22.760;2022-12-29T07:13:18;14.10;;;4.60;;
58661;SDS011;44432;49.786;22.760;2022-12-29T07:15:49;11.50;;;4.50;;
58661;SDS011;44432;49.786;22.760;2022-12-29T07:18:20;9.10;;;2.30;;
58661;SDS011;44432;49.786;22.760;2022-12-29T07:20:51;13.70;;;5.20;;
58661;SDS011;44432;49.786;22.760;2022-12-29T07:23:23;9.90;;;2.80;;
58661;SDS011;44432;49.786;22.760;2022-12-29T07:25:59;12.90;;;2.50;;
58661;SDS011;44432;49.786;22.760;2022-12-29T07:28:31;11.20;;;3.40;;
58661;SDS011;44432;49.786;22.760;2022-12-29T07:31:03;16.90;;;6.90;;
58661;SDS011;44432;49.786;22.760;2022-12-29T07:33:34;45.00;;;18.90;;
58661;SDS011;44432;49.786;22.760;2022-12-29T07:36:06;12.50;;;3.30;;
58661;SDS011;44432;49.786;22.760;2022-12-29T07:38:38;13.30;;;4.60;;
58661;SDS011;44432;49.786;22.760;2022-12-29T07:41:09;17.40;;;6.10;;
58661;SDS011;44432;49.786;22.760;2022-12-29T07:43:40;38.50;;;9.90;;
58661;SDS011;44432;49.786;22.760;2022-12-29T07:46:11;11.10;;;4.70;;
58661;SDS011;44432;49.786;22.760;2022-12-29T07:48:42;11.00;;;3.40;;
58661;SDS011;44432;49.786;22.760;2022-12-29T07:51:13;8.00;;;2.40;;
58661;SDS011;44432;49.786;22.760;2022-12-29T07:53:44;8.30;;;2.80;;
58661;SDS011;44432;49.786;22.760;2022-12-29T07:56:15;6.00;;;2.80;;
58661;SDS011;44432;49.786;22.760;2022-12-29T07:58:46;7.10;;;2.70;;
58661;SDS011;44432;49.786;22.760;2022-12-29T08:01:18;18.30;;;8.00;;
58661;SDS011;44432;49.786;22.760;2022-12-29T08:03:49;7.90;;;3.20;;
58661;SDS011;44432;49.786;22.760;2022-12-29T08:06:19;6.90;;;2.90;;
58661;SDS011;44432;49.786;22.760;2022-12-29T08:08:50;14.40;;;7.20;;
58661;SDS011;44432;49.786;22.760;2022-12-29T08:11:21;6.00;;;2.70;;
58661;SDS011;44432;49.786;22.760;2022-12-29T08:13:52;19.20;;;6.90;;
58661;SDS011;44432;49.786;22.760;2022-12-29T08:16:23;9.10;;;3.50;;
58661;SDS011;44432;49.786;22.760;2022-12-29T08:18:53;6.40;;;2.70;;
58661;SDS011;44432;49.786;22.760;2022-12-29T08:21:25;19.40;;;6.30;;
58661;SDS011;44432;49.786;22.760;2022-12-29T08:23:57;41.50;;;18.50;;
58661;SDS011;44432;49.786;22.760;2022-12-29T08:26:28;40.00;;;18.00;;
58661;SDS011;44432;49.786;22.760;2022-12-29T08:28:59;58.70;;;28.10;;
58661;SDS011;44432;49.786;22.760;2022-12-29T08:31:30;18.90;;;8.90;;
58661;SDS011;44432;49.786;22.760;2022-12-29T08:34:01;7.70;;;3.30;;
58661;SDS011;44432;49.786;22.760;2022-12-29T08:36:32;19.50;;;4.60;;
58661;SDS011;44432;49.786;22.760;2022-12-29T08:39:03;50.70;;;10.30;;
58661;SDS011;44432;49.786;22.760;2022-12-29T08:41:33;6.30;;;3.10;;
58661;SDS011;44432;49.786;22.760;2022-12-29T08:44:04;81.70;;;37.00;;
58661;SDS011;44432;49.786;22.760;2022-12-29T08:46:35;85.50;;;38.70;;
58661;SDS011;44432;49.786;22.760;2022-12-29T08:49:06;28.10;;;15.40;;
58661;SDS011;44432;49.786;22.760;2022-12-29T08:51:37;19.90;;;7.90;;
58661;SDS011;44432;49.786;22.760;2022-12-29T08:54:08;12.00;;;6.20;;
58661;SDS011;44432;49.786;22.760;2022-12-29T08:56:39;9.10;;;2.90;;
58661;SDS011;44432;49.786;22.760;2022-12-29T08:59:10;15.00;;;8.80;;
58661;SDS011;44432;49.786;22.760;2022-12-29T09:01:41;7.00;;;4.70;;
58661;SDS011;44432;49.786;22.760;2022-12-29T09:04:12;8.80;;;4.40;;
58661;SDS011;44432;49.786;22.760;2022-12-29T09:06:42;12.20;;;5.20;;
58661;SDS011;44432;49.786;22.760;2022-12-29T09:09:14;10.30;;;3.80;;
58661;SDS011;44432;49.786;22.760;2022-12-29T09:11:45;8.00;;;3.40;;
58661;SDS011;44432;49.786;22.760;2022-12-29T09:14:16;8.80;;;2.70;;
58661;SDS011;44432;49.786;22.760;2022-12-29T09:16:47;8.10;;;3.30;;
58661;SDS011;44432;49.786;22.760;2022-12-29T09:19:37;5.60;;;2.70;;
58661;SDS011;44432;49.786;22.760;2022-12-29T09:22:07;7.40;;;3.30;;
58661;SDS011;44432;49.786;22.760;2022-12-29T09:24:38;10.90;;;2.80;;
58661;SDS011;44432;49.786;22.760;2022-12-29T09:27:09;9.90;;;3.90;;
58661;SDS011;44432;49.786;22.760;2022-12-29T09:29:40;14.30;;;5.30;;
58661;SDS011;44432;49.786;22.760;2022-12-29T09:32:11;15.10;;;4.40;;
58661;SDS011;44432;49.786;22.760;2022-12-29T09:34:42;9.10;;;3.50;;
58661;SDS011;44432;49.786;22.760;2022-12-29T09:37:12;4.40;;;2.70;;
58661;SDS011;44432;49.786;22.760;2022-12-29T09:39:43;6.40;;;2.80;;
58661;SDS011;44432;49.786;22.760;2022-12-29T09:42:16;9.50;;;5.30;;
58661;SDS011;44432;49.786;22.760;2022-12-29T09:44:56;14.10;;;3.90;;
58661;SDS011;44432;49.786;22.760;2022-12-29T09:47:38;8.60;;;3.00;;
58661;SDS011;44432;49.786;22.760;2022-12-29T09:50:10;10.20;;;3.40;;
58661;SDS011;44432;49.786;22.760;2022-12-29T09:52:49;8.70;;;3.10;;
58661;SDS011;44432;49.786;22.760;2022-12-29T09:55:26;13.20;;;4.10;;
58661;SDS011;44432;49.786;22.760;2022-12-29T09:58:04;14.50;;;4.00;;
58661;SDS011;44432;49.786;22.760;2022-12-29T10:00:43;10.10;;;2.90;;
58661;SDS011;44432;49.786;22.760;2022-12-29T10:03:21;9.10;;;2.80;;
58661;SDS011;44432;49.786;22.760;2022-12-29T10:05:57;7.30;;;3.40;;
58661;SDS011;44432;49.786;22.760;2022-12-29T10:08:34;11.80;;;3.00;;
58661;SDS011;44432;49.786;22.760;2022-12-29T10:11:12;16.20;;;4.70;;
58661;SDS011;44432;49.786;22.760;2022-12-29T10:13:57;7.70;;;3.70;;
58661;SDS011;44432;49.786;22.760;2022-12-29T10:16:42;14.80;;;3.40;;
58661;SDS011;44432;49.786;22.760;2022-12-29T10:19:28;26.20;;;4.20;;
58661;SDS011;44432;49.786;22.760;2022-12-29T10:22:12;15.70;;;4.20;;
58661;SDS011;44432;49.786;22.760;2022-12-29T10:24:58;6.90;;;2.90;;
58661;SDS011;44432;49.786;22.760;2022-12-29T10:27:32;9.00;;;3.10;;
58661;SDS011;44432;49.786;22.760;2022-12-29T10:30:04;10.00;;;3.50;;
58661;SDS011;44432;49.786;22.760;2022-12-29T10:32:41;11.20;;;3.10;;
58661;SDS011;44432;49.786;22.760;2022-12-29T10:35:18;13.50;;;3.20;;
58661;SDS011;44432;49.786;22.760;2022-12-29T10:37:51;9.40;;;2.90;;
58661;SDS011;44432;49.786;22.760;2022-12-29T10:40:28;11.70;;;3.20;;
58661;SDS011;44432;49.786;22.760;2022-12-29T10:43:07;7.20;;;3.20;;
58661;SDS011;44432;49.786;22.760;2022-12-29T10:45:49;6.30;;;3.20;;
58661;SDS011;44432;49.786;22.760;2022-12-29T10:48:23;9.10;;;3.50;;
58661;SDS011;44432;49.786;22.760;2022-12-29T10:50:57;5.60;;;3.10;;
58661;SDS011;44432;49.786;22.760;2022-12-29T10:53:33;7.70;;;3.10;;
58661;SDS011;44432;49.786;22.760;2022-12-29T10:56:09;8.90;;;2.90;;
58661;SDS011;44432;49.786;22.760;2022-12-29T10:58:50;9.80;;;4.50;;
58661;SDS011;44432;49.786;22.760;2022-12-29T11:01:23;14.30;;;7.20;;
58661;SDS011;44432;49.786;22.760;2022-12-29T11:04:00;9.10;;;5.50;;
58661;SDS011;44432;49.786;22.760;2022-12-29T11:06:36;12.10;;;4.70;;
58661;SDS011;44432;49.786;22.760;2022-12-29T11:09:11;6.40;;;3.60;;
58661;SDS011;44432;49.786;22.760;2022-12-29T11:11:45;5.30;;;2.90;;
58661;SDS011;44432;49.786;22.760;2022-12-29T11:14:17;11.10;;;4.60;;
58661;SDS011;44432;49.786;22.760;2022-12-29T11:16:57;21.50;;;5.10;;
58661;SDS011;44432;49.786;22.760;2022-12-29T11:19:30;13.90;;;8.00;;
58661;SDS011;44432;49.786;22.760;2022-12-29T11:22:13;9.90;;;4.20;;
58661;SDS011;44432;49.786;22.760;2022-12-29T11:24:51;15.10;;;4.80;;
58661;SDS011;44432;49.786;22.760;2022-12-29T11:27:23;11.10;;;4.90;;
58661;SDS011;44432;49.786;22.760;2022-12-29T11:29:55;27.30;;;6.60;;
58661;SDS011;44432;49.786;22.760;2022-12-29T11:32:26;9.70;;;4.10;;
58661;SDS011;44432;49.786;22.760;2022-12-29T11:34:58;8.10;;;5.30;;
58661;SDS011;44432;49.786;22.760;2022-12-29T11:37:30;9.70;;;3.20;;
58661;SDS011;44432;49.786;22.760;2022-12-29T11:40:15;6.90;;;3.50;;
58661;SDS011;44432;49.786;22.760;2022-12-29T11:42:49;8.10;;;3.30;;
58661;SDS011;44432;49.786;22.760;2022-12-29T11:45:23;9.80;;;3.40;;
58661;SDS011;44432;49.786;22.760;2022-12-29T11:47:57;9.80;;;4.20;;
58661;SDS011;44432;49.786;22.760;2022-12-29T11:50:30;7.70;;;3.70;;
58661;SDS011;44432;49.786;22.760;2022-12-29T11:53:03;7.30;;;3.50;;
58661;SDS011;44432;49.786;22.760;2022-12-29T11:55:43;7.10;;;3.60;;
58661;SDS011;44432;49.786;22.760;2022-12-29T11:58:27;10.20;;;4.10;;
58661;SDS011;44432;49.786;22.760;2022-12-29T12:01:00;8.30;;;4.60;;
58661;SDS011;44432;49.786;22.760;2022-12-29T12:03:37;26.20;;;14.80;;
58661;SDS011;44432;49.786;22.760;2022-12-29T12:06:12;11.50;;;4.70;;
58661;SDS011;44432;49.786;22.760;2022-12-29T12:08:48;16.10;;;7.50;;
58661;SDS011;44432;49.786;22.760;2022-12-29T12:11:24;13.90;;;4.70;;
58661;SDS011;44432;49.786;22.760;2022-12-29T12:14:04;19.60;;;5.40;;
58661;SDS011;44432;49.786;22.760;2022-12-29T12:16:43;46.50;;;23.90;;
58661;SDS011;44432;49.786;22.760;2022-12-29T12:19:23;19.50;;;8.40;;
58661;SDS011;44432;49.786;22.760;2022-12-29T12:22:03;19.70;;;8.70;;
58661;SDS011;44432;49.786;22.760;2022-12-29T12:24:44;16.30;;;7.80;;
58661;SDS011;44432;49.786;22.760;2022-12-29T12:27:23;6.60;;;3.70;;
58661;SDS011;44432;49.786;22.760;2022-12-29T12:29:58;8.80;;;4.20;;
58661;SDS011;44432;49.786;22.760;2022-12-29T12:32:35;10.30;;;4.40;;
58661;SDS011;44432;49.786;22.760;2022-12-29T12:35:14;7.90;;;4.60;;
58661;SDS011;44432;49.786;22.760;2022-12-29T12:38:00;8.50;;;3.90;;
58661;SDS011;44432;49.786;22.760;2022-12-29T12:40:58;18.50;;;11.40;;
58661;SDS011;44432;49.786;22.760;2022-12-29T12:43:39;9.80;;;4.50;;
58661;SDS011;44432;49.786;22.760;2022-12-29T12:46:25;20.20;;;5.10;;
58661;SDS011;44432;49.786;22.760;2022-12-29T12:49:37;8.90;;;4.30;;
58661;SDS011;44432;49.786;22.760;2022-12-29T12:52:39;10.20;;;4.60;;
58661;SDS011;44432;49.786;22.760;2022-12-29T12:55:37;8.20;;;3.60;;
58661;SDS011;44432;49.786;22.760;2022-12-29T12:58:18;15.70;;;4.20;;
58661;SDS011;44432;49.786;22.760;2022-12-29T13:01:01;8.10;;;3.70;;
58661;SDS011;44432;49.786;22.760;2022-12-29T13:03:47;11.60;;;4.90;;
58661;SDS011;44432;49.786;22.760;2022-12-29T13:06:33;12.00;;;5.50;;
58661;SDS011;44432;49.786;22.760;2022-12-29T13:09:18;10.70;;;3.70;;
58661;SDS011;44432;49.786;22.760;2022-12-29T13:12:09;9.70;;;4.40;;
58661;SDS011;44432;49.786;22.760;2022-12-29T13:14:50;8.20;;;4.10;;
58661;SDS011;44432;49.786;22.760;2022-12-29T13:17:34;7.00;;;3.50;;
58661;SDS011;44432;49.786;22.760;2022-12-29T13:20:14;11.70;;;4.40;;
58661;SDS011;44432;49.786;22.760;2022-12-29T13:22:57;10.00;;;4.70;;
58661;SDS011;44432;49.786;22.760;2022-12-29T13:25:34;15.90;;;5.30;;
58661;SDS011;44432;49.786;22.760;2022-12-29T13:28:14;8.80;;;4.60;;
58661;SDS011;44432;49.786;22.760;2022-12-29T13:30:53;10.50;;;3.90;;
58661;SDS011;44432;49.786;22.760;2022-12-29T13:33:32;7.70;;;4.20;;
58661;SDS011;44432;49.786;22.760;2022-12-29T13:36:19;13.20;;;5.60;;
58661;SDS011;44432;49.786;22.760;2022-12-29T13:39:00;13.40;;;5.10;;
58661;SDS011;44432;49.786;22.760;2022-12-29T13:41:37;8.80;;;4.90;;
58661;SDS011;44432;49.786;22.760;2022-12-29T13:44:16;11.50;;;5.50;;
58661;SDS011;44432;49.786;22.760;2022-12-29T13:46:51;7.70;;;4.40;;
58661;SDS011;44432;49.786;22.760;2022-12-29T13:49:25;7.40;;;3.60;;
58661;SDS011;44432;49.786;22.760;2022-12-29T13:51:57;11.70;;;4.70;;
58661;SDS011;44432;49.786;22.760;2022-12-29T13:54:39;10.30;;;5.50;;
58661;SDS011;44432;49.786;22.760;2022-12-29T13:57:16;13.30;;;4.90;;
58661;SDS011;44432;49.786;22.760;2022-12-29T13:59:59;10.50;;;4.90;;
58661;SDS011;44432;49.786;22.760;2022-12-29T14:02:36;9.70;;;5.40;;
58661;SDS011;44432;49.786;22.760;2022-12-29T14:05:30;12.40;;;4.60;;
58661;SDS011;44432;49.786;22.760;2022-12-29T14:08:03;7.30;;;4.20;;
58661;SDS011;44432;49.786;22.760;2022-12-29T14:13:06;13.50;;;4.60;;
58661;SDS011;44432;49.786;22.760;2022-12-29T14:15:43;12.70;;;5.90;;
58661;SDS011;44432;49.786;22.760;2022-12-29T14:18:19;14.70;;;5.20;;
58661;SDS011;44432;49.786;22.760;2022-12-29T14:20:56;12.10;;;6.40;;
58661;SDS011;44432;49.786;22.760;2022-12-29T14:23:35;12.10;;;4.70;;
58661;SDS011;44432;49.786;22.760;2022-12-29T14:26:12;15.00;;;4.90;;
58661;SDS011;44432;49.786;22.760;2022-12-29T14:28:45;7.50;;;3.90;;
58661;SDS011;44432;49.786;22.760;2022-12-29T14:31:36;7.80;;;4.60;;
58661;SDS011;44432;49.786;22.760;2022-12-29T14:36:58;12.60;;;5.20;;
58661;SDS011;44432;49.786;22.760;2022-12-29T14:39:36;10.30;;;4.80;;
58661;SDS011;44432;49.786;22.760;2022-12-29T14:42:12;13.20;;;5.10;;
58661;SDS011;44432;49.786;22.760;2022-12-29T14:44:50;14.20;;;5.30;;
58661;SDS011;44432;49.786;22.760;2022-12-29T14:47:31;14.00;;;6.80;;
58661;SDS011;44432;49.786;22.760;2022-12-29T14:50:05;10.20;;;4.80;;
58661;SDS011;44432;49.786;22.760;2022-12-29T14:52:44;15.20;;;8.40;;
58661;SDS011;44432;49.786;22.760;2022-12-29T14:55:38;17.00;;;8.70;;
58661;SDS011;44432;49.786;22.760;2022-12-29T14:58:14;10.80;;;4.80;;
58661;SDS011;44432;49.786;22.760;2022-12-29T15:00:47;12.90;;;4.70;;
58661;SDS011;44432;49.786;22.760;2022-12-29T15:03:19;12.70;;;5.50;;
58661;SDS011;44432;49.786;22.760;2022-12-29T15:05:52;9.70;;;5.60;;
58661;SDS011;44432;49.786;22.760;2022-12-29T15:08:26;11.80;;;5.90;;
58661;SDS011;44432;49.786;22.760;2022-12-29T15:11:03;11.40;;;5.70;;
58661;SDS011;44432;49.786;22.760;2022-12-29T15:13:42;24.70;;;9.60;;
58661;SDS011;44432;49.786;22.760;2022-12-29T15:16:23;12.80;;;7.70;;
58661;SDS011;44432;49.786;22.760;2022-12-29T15:18:55;10.60;;;5.70;;
58661;SDS011;44432;49.786;22.760;2022-12-29T15:21:27;12.50;;;7.30;;
58661;SDS011;44432;49.786;22.760;2022-12-29T15:23:59;22.30;;;5.80;;
58661;SDS011;44432;49.786;22.760;2022-12-29T15:26:37;18.60;;;7.50;;
58661;SDS011;44432;49.786;22.760;2022-12-29T15:29:26;9.90;;;5.60;;
58661;SDS011;44432;49.786;22.760;2022-12-29T15:32:01;20.40;;;8.00;;
58661;SDS011;44432;49.786;22.760;2022-12-29T15:34:45;16.30;;;7.80;;